• Join FlightAware (Why Join?)
  • Login
  • US Flag 
03:23PM EST


 

Airport Tracker/Info


-or-


 

Live Flight TrackerFlight Track Log ✈ ASQ5685 ✈ 06-Dec-2013 ✈ KATL - KIAD

Flight Track Log - Related Links

Times and Time Zones

All times are in EST time to prevent confusion due to time zone crossing. See the ASQ5685 flight status page for this flight to view local times or setup timezone preferences in your user account.

Time Position Orientation Groundspeed Altitude Reporting Facility
EST Latitude Longitude Course Direction KTS MPH feet Rate Location/Type
10:26AM 33.6119 -84.4928 73° East 369 425 3,100  Level Atlanta Center
10:27AM 33.5867 -84.5525 243° Southwest 240 276 4,700 1,800 Climbing Atlanta Center
10:28AM 33.8788 -84.1402 54° Northeast  Level Estimated
10:28AM 33.5300 -84.5894 209° Southwest 217 250 6,800  Level Atlanta Center
10:29AM 33.9593 -84.0439 48° Northeast  Level Estimated
10:29AM 33.4697 -84.5194 136° Southeast 289 333 8,100  Level Atlanta Center
10:30AM 34.0398 -83.9474 53° Northeast  Level Estimated
10:30AM 33.4597 -84.4297 98° East 325 374 10,100  Level Atlanta Center
10:31AM 34.0726 -83.8164 73° East  Level FlightAware Approximate
10:31AM 33.4892 -84.3128 73° East 345 397 10,900  Level Atlanta Center
10:32AM 33.5667 -84.2133 47° Northeast 364 419 12,100 1,080 Climbing Atlanta Center
10:33AM 33.6439 -84.1061 49° Northeast 406 467 13,100 960 Climbing Atlanta Center
10:34AM 33.7253 -83.9989 48° Northeast 424 488 14,100 960 Climbing Atlanta Center
10:35AM 33.8047 -83.8914 48° Northeast 432 497 15,100 960 Climbing Atlanta Center
10:36AM 33.8858 -83.7786 49° Northeast 440 506 16,100 960 Climbing Atlanta Center
10:37AM 33.9647 -83.6606 51° Northeast 440 506 17,100 960 Climbing Atlanta Center
10:38AM 34.0375 -83.5450 53° Northeast 440 506 18,100 960 Climbing Atlanta Center
10:39AM 34.1142 -83.4242 53° Northeast 440 506 19,100 960 Climbing Atlanta Center
10:40AM 34.1867 -83.3056 54° Northeast 440 506 20,100 960 Climbing Atlanta Center
10:41AM 34.2650 -83.1817 53° Northeast 445 512 21,100 960 Climbing Atlanta Center
10:42AM 34.3372 -83.0603 54° Northeast 445 512 22,100 900 Climbing Atlanta Center
10:43AM 34.4053 -82.9536 52° Northeast 451 519 23,000 900 Climbing Atlanta Center
10:44AM 34.4811 -82.8317 53° Northeast 451 519 24,000 900 Climbing Atlanta Center
10:45AM 34.5550 -82.7097 54° Northeast 451 519 24,800 480 Climbing Atlanta Center
10:46AM 34.6411 -82.5744 52° Northeast 457 526 25,000 60 Climbing Atlanta Center
10:47AM 34.7128 -82.4594 53° Northeast 462 532 25,000  Level Atlanta Center
10:48AM 34.7944 -82.3264 53° Northeast 472 543 25,000  Level Atlanta Center
10:49AM 34.8758 -82.1856 55° Northeast 490 564 25,000  Level Atlanta Center
10:50AM 34.9614 -82.0542 52° Northeast 490 564 25,000  Level Atlanta Center
10:51AM 35.0428 -81.9178 54° Northeast 490 564 25,000  Level Atlanta Center
10:52AM 35.1194 -81.7739 57° Northeast 495 570 25,000  Level Atlanta Center
10:53AM 35.1958 -81.6242 58° Northeast 506 582 25,000  Level Atlanta Center
10:54AM 35.2722 -81.4794 57° Northeast 511 588 25,000  Level Atlanta Center
10:55AM 35.3483 -81.3347 57° Northeast 511 588 25,000  Level Atlanta Center
10:56AM 35.4242 -81.1842 58° Northeast 511 588 25,000  Level Atlanta Center
10:57AM 35.5019 -81.0336 58° Northeast 511 588 25,000  Level Atlanta Center
10:58AM 35.5878 -80.8722 57° Northeast 519 597 25,000  Level Atlanta Center
10:59AM 35.6631 -80.7261 58° Northeast 519 597 25,000  Level Atlanta Center
11:00AM 35.7383 -80.5772 58° Northeast 514 592 25,000  Level Atlanta Center
11:01AM 35.8153 -80.4306 57° Northeast 514 592 25,000  Level Atlanta Center
11:03AM 35.9428 -80.1794 58° Northeast 511 588 25,000  Level Washington Center
11:04AM 36.0242 -80.0197 58° Northeast 497 572 25,000  Level Washington Center
11:05AM 36.1067 -79.8700 56° Northeast 503 579 25,000  Level Washington Center
11:06AM 36.1892 -79.7228 55° Northeast 520 598 25,000  Level Washington Center
11:07AM 36.2644 -79.5928 54° Northeast 520 598 25,000  Level Washington Center
11:08AM 36.3572 -79.4350 54° Northeast 520 598 25,000  Level Washington Center
11:09AM 36.4372 -79.2814 57° Northeast 514 592 25,000  Level Washington Center
11:10AM 36.5122 -79.1481 55° Northeast 519 597 25,000  Level Washington Center
11:11AM 36.6044 -78.9917 54° Northeast 519 597 25,000  Level Washington Center
11:12AM 36.6750 -78.8525 58° Northeast 519 597 25,000  Level Washington Center
11:13AM 36.7583 -78.7028 55° Northeast 519 597 25,000 -120 Level Washington Center
11:14AM 36.8067 -78.5233 71° East 494 568 24,800 -660 Descending Washington Center
11:15AM 36.8328 -78.3842 77° East 483 556 23,700 -1,140 Descending Washington Center
11:16AM 36.8697 -78.2350 73° East 469 540 22,500 -900 Descending Washington Center
11:17AM 36.9569 -78.1522 37° Northeast 420 483 22,000 -300 Descending Washington Center
11:18AM 37.0772 -78.0911 22° Northeast 406 467 22,000  Level Washington Center
11:19AM 37.1892 -78.0242 25° Northeast 417 480 22,000  Level Washington Center
11:20AM 37.3114 -77.9578 23° Northeast 445 512 22,000  Level Washington Center
11:21AM 37.4339 -77.8831 26° Northeast 464 534 22,000  Level Washington Center
11:22AM 37.5497 -77.8183 24° Northeast 476 548 22,000  Level Washington Center
11:23AM 37.6536 -77.7375 32° Northeast 448 516 22,000 -960 Level Washington Center
11:24AM 37.7283 -77.6267 50° Northeast 422 486 20,100 -2,160 Descending Washington Center
11:25AM 37.8011 -77.5208 49° Northeast 409 471 17,700 -2,400 Descending Washington Center
11:26AM 37.8756 -77.4203 47° Northeast 395 455 15,400 -2,400 Descending Washington Center
11:27AM 37.9722 -77.3831 17° North 365 420 13,000 -2,340 Descending Washington Center
11:28AM 38.0636 -77.4142 345° North 323 372 10,700 -1,560 Descending Washington Center
11:29AM 38.1508 -77.4375 348° North 318 366 9,900 -780 Descending Washington Center
11:30AM 38.2358 -77.4581 349° North 312 359 9,200 -1,140 Descending Washington Center
11:31AM 38.3169 -77.4681 354° North 312 359 7,700 -1,140 Descending Washington Center
11:32AM 38.3942 -77.4700 359° North 293 337 7,000 -540 Descending Washington Center
11:33AM 38.4631 -77.4583 North 266 306 6,700 -960 Descending Washington Center
11:34AM 38.5342 -77.4442 North 254 292 5,200 -1,380 Descending Washington Center
11:35AM 38.6011 -77.4433 North 248 285 4,000 -1,140 Descending Washington Center
11:36AM 38.6572 -77.4419 North 226 260 3,000 -540 Descending Washington Center
11:37AM 38.7072 -77.4433 359° North 195 224 3,000  Level Washington Center
11:38AM 38.7553 -77.4417 North 181 208 3,000 -240 Level Washington Center
11:39AM 38.8167 -77.4333 North 175 201 2,500 -660 Descending Potomac TRACON
11:40AM 38.8500 -77.4333 360° North 142 163 1,700 -840 Descending Potomac TRACON
11:41AM 38.9000 -77.4333 360° North 129 148 1,000 -720 Descending Potomac TRACON